Gettysburg, SD (57442)

11:55 PM CDT on July 28, 2014 (GMT -0500)
KSDHOVEN2 Elev 1877 ft | 45.24 °N, 99.78 °W | Change Station

Current weather conditions updated 5 minutes ago

Clear
Clear
59.9 °F
Feels Like 59.9 °F
N
0.0
Wind Variable Wind from SE
Gusts 3.6 mph

Tomorrow is forecast to be Warmer than today.

Today
High -- | Low -- °F
--% Chance of Precip.
Yesterday
High -- | Low -- °F
Precip. -- in
6:20 AM 9:11 PM
Waxing Crescent, 5% visible
Pressure 30.20 in
Visibility 10.0 miles
Clouds Clear
Dew Point 43 °F
Humidity 53%
Rainfall 0.00 in
Snow Depth Not available.
UV 0 out of 12
Pollen 6.60 out of 12
Air Quality Not available.
Flu Activity Not available.
METAR KMBG 290352Z AUTO 07008KT 10SM CLR 18/10 A3022 RMK AO2 SLP227 T01780100

More Conditions Fewer Conditions

Pressure 30.20 in
Visibility 10.0 miles
Clouds Clear
Dew Point 43 °F
Humidity 53%
Rainfall 0.00 in
Snow Depth Not available.
UV 0 out of 12
Pollen 6.60 out of 12
Air Quality Not available.
Flu Activity Not available.
METAR KMBG 290352Z AUTO 07008KT 10SM CLR 18/10 A3022 RMK AO2 SLP227 T01780100

More Conditions Fewer Conditions

10-Day Weather Forecast

Almanac

Astronomy

Jul. 28, 2014 Rise Set
Actual Time 6:20 AM CDT 9:11 PM CDT
Civil Twilight 5:46 AM CDT 9:45 PM CDT
Nautical Twilight 5:02 AM CDT 10:28 PM CDT
Astronomical Twilight 4:11 AM CDT 11:19 PM CDT
Moon 8:11 AM CDT (7/28) 9:45 PM CDT (7/28)
Length of Visible Light 15h 58m
Length of Day
14h 50m
Tomorrow will be 2m 18s shorter.
Waxing Crescent, 5% of the Moon is Illuminated
Jul 29
Waxing Crescent
Aug 3
First Quarter
Aug 10
Full
Aug 17
Last Quarter
Aug 25
New

Yesterday's Extremes

State Highs State Lows

Community

WunderPhotos

Upload Photos

1,738,634 photos uploaded!

Nearby

Snow Depth

Station Depth Elevation
Blind Park 0 in 6890 ft

Earthquake Activity

City Distance Mag. Time & Date
No recent earthquake activity has been reported nearby.
Minimum magnitude displayed is 2.5.

Coastal Water Temperatures

Place Temperature
No Stations Reporting

Nearby Weather Stations

Station Location Temp. Dew Point Humidity Wind Precip. Elev Updated Type
NonFedAWOS GETTYSBURG , Gettysburg, SD 57 °F 54 °F 88% North  at  0 mph 0.00 in / hr 2061 ft 10:55 PM CDT MADIS
Hoven, SD 59.9 °F 43 °F 53% SE  at  0.0 mph 0.00 in / hr 1877 ft 11:50 PM CDT Normal

Show More Stations Show Fewer Stations